Orbital elements of COSMOS 2054
| Launched | 26 December 1989 |
| Flight ended | – |
| Launch site | Tyuratam Missile and Space Center, Kazakhstan (Also known as Baikonur Cosmodrome) |
| Owner | Commonwealth of Independent States (former USSR) |
| NORAD ID | 20391 |
| Date fetched |
Epoch osculation |
Inc. [°] |
Ecc. | RA asc node [hr] |
Arg Peri. [°] |
Mean anom [°] |
Mean motion [rev/day] |
Abs. mag |
| Date fetched |
Epoch osculation |
Inc. [°] |
Ecc. | RA asc node [hr] |
Arg Peri. [°] |
Mean anom [°] |
Mean motion [rev/day] |
Abs. mag |
| 2026 May 04 17:57 | 2026 Apr 30 09:18:50 | 12.2906 | 0.00008 | 22.3055 | 230.0490 | 336.3858 | 1.00258 | – |
| 2026 May 03 17:57 | 2026 Apr 30 09:18:50 | 12.2906 | 0.00008 | 22.3055 | 230.0490 | 336.3858 | 1.00258 | – |
| 2026 May 02 17:57 | 2026 Apr 30 09:18:50 | 12.2906 | 0.00008 | 22.3055 | 230.0490 | 336.3858 | 1.00258 | – |
| 2026 May 01 17:56 | 2026 Apr 30 09:18:50 | 12.2906 | 0.00008 | 22.3055 | 230.0490 | 336.3858 | 1.00258 | – |
| 2026 Apr 30 17:56 | 2026 Apr 30 09:18:50 | 12.2906 | 0.00008 | 22.3055 | 230.0490 | 336.3858 | 1.00258 | – |
| 2026 Apr 29 17:57 | 2026 Apr 24 09:28:14 | 12.2969 | 0.00008 | 22.3081 | 235.4918 | 336.3858 | 1.00258 | – |
| 2026 Apr 28 17:56 | 2026 Apr 24 09:28:14 | 12.2969 | 0.00008 | 22.3081 | 235.4918 | 336.3858 | 1.00258 | – |
| 2026 Apr 27 17:58 | 2026 Apr 24 09:28:14 | 12.2969 | 0.00008 | 22.3081 | 235.4918 | 336.3858 | 1.00258 | – |
| 2026 Apr 26 17:58 | 2026 Apr 24 09:28:14 | 12.2969 | 0.00008 | 22.3081 | 235.4918 | 336.3858 | 1.00258 | – |
| 2026 Apr 25 17:58 | 2026 Apr 24 09:28:14 | 12.2969 | 0.00008 | 22.3081 | 235.4918 | 336.3858 | 1.00258 | – |
| 2026 Apr 24 17:59 | 2026 Apr 24 09:28:14 | 12.2969 | 0.00008 | 22.3081 | 235.4918 | 336.3858 | 1.00258 | – |
| 2026 Apr 23 17:57 | 2026 Apr 19 07:53:39 | 12.3021 | 0.00008 | 22.3105 | 249.8565 | 336.3858 | 1.00258 | – |
| 2026 Apr 22 17:57 | 2026 Apr 19 07:53:39 | 12.3021 | 0.00008 | 22.3105 | 249.8565 | 336.3858 | 1.00258 | – |
| 2026 Apr 21 17:57 | 2026 Apr 19 07:53:39 | 12.3021 | 0.00008 | 22.3105 | 249.8565 | 336.3858 | 1.00258 | – |
| 2026 Apr 20 17:57 | 2026 Apr 19 07:53:39 | 12.3021 | 0.00008 | 22.3105 | 249.8565 | 336.3858 | 1.00258 | – |
| 2026 Apr 19 17:58 | 2026 Apr 19 07:53:39 | 12.3021 | 0.00008 | 22.3105 | 249.8565 | 336.3858 | 1.00258 | – |
| 2026 Apr 18 17:56 | 2026 Apr 12 20:10:31 | 12.3087 | 0.00009 | 22.3134 | 267.7606 | 336.3858 | 1.00258 | – |
| 2026 Apr 16 17:57 | 2026 Apr 12 20:10:31 | 12.3087 | 0.00009 | 22.3134 | 267.7606 | 336.3858 | 1.00258 | – |
| 2026 Apr 14 17:57 | 2026 Apr 12 20:10:31 | 12.3087 | 0.00009 | 22.3134 | 267.7606 | 336.3858 | 1.00258 | – |
| 2026 Apr 13 17:57 | 2026 Apr 12 20:10:31 | 12.3087 | 0.00009 | 22.3134 | 267.7606 | 336.3858 | 1.00258 | – |
| 2026 Apr 12 17:57 | 2026 Apr 08 09:07:38 | 12.3134 | 0.00011 | 22.3154 | 271.1353 | 336.3858 | 1.00258 | – |
| 2026 Apr 11 17:57 | 2026 Apr 08 09:07:38 | 12.3134 | 0.00011 | 22.3154 | 271.1353 | 336.3858 | 1.00258 | – |
| 2026 Apr 10 17:58 | 2026 Apr 08 09:07:38 | 12.3134 | 0.00011 | 22.3154 | 271.1353 | 336.3858 | 1.00258 | – |
| 2026 Apr 09 18:01 | 2026 Apr 08 09:07:38 | 12.3134 | 0.00011 | 22.3154 | 271.1353 | 336.3858 | 1.00258 | – |
| 2026 Apr 08 17:57 | 2026 Apr 08 09:07:38 | 12.3134 | 0.00011 | 22.3154 | 271.1353 | 336.3858 | 1.00258 | – |
| 2026 Apr 07 17:57 | 2026 Apr 01 13:13:46 | 12.3206 | 0.00012 | 22.3184 | 272.6672 | 336.3858 | 1.00258 | – |